createdAt,value
2018-12-05T00:00:32.266Z,4.60
2018-12-05T00:02:58.754Z,4.20
2018-12-05T00:05:25.357Z,5.63
2018-12-05T00:07:51.820Z,5.80
2018-12-05T00:10:18.274Z,5.40
2018-12-05T00:12:45.141Z,4.80
2018-12-05T00:15:11.758Z,4.60
2018-12-05T00:17:38.221Z,4.60
2018-12-05T00:20:05.133Z,5.10
2018-12-05T00:22:31.682Z,4.53
2018-12-05T00:24:58.167Z,4.60
2018-12-05T00:27:24.941Z,3.53
2018-12-05T00:29:51.513Z,3.50
2018-12-05T00:32:17.982Z,4.60
2018-12-05T00:34:44.507Z,4.53
2018-12-05T00:37:11.012Z,3.37
2018-12-05T00:39:37.479Z,4.30
2018-12-05T00:42:04.278Z,5.10
2018-12-05T00:44:30.759Z,5.00
2018-12-05T00:46:57.381Z,4.07
2018-12-05T00:49:23.923Z,2.60
2018-12-05T00:51:50.399Z,3.97
2018-12-05T00:54:16.914Z,2.60
2018-12-05T00:56:43.456Z,4.30
2018-12-05T00:59:09.926Z,3.20
2018-12-05T01:01:36.431Z,4.00
2018-12-05T01:04:03.374Z,3.70
2018-12-05T01:06:29.852Z,3.57
2018-12-05T01:08:56.325Z,4.20
2018-12-05T01:11:23.214Z,4.20
2018-12-05T01:13:49.681Z,3.03
2018-12-05T01:16:16.150Z,3.73
2018-12-05T01:18:42.944Z,3.67
2018-12-05T01:21:09.550Z,3.60
2018-12-05T01:23:36.002Z,3.87
2018-12-05T01:26:02.746Z,4.20
2018-12-05T01:28:29.223Z,3.30
2018-12-05T01:30:55.773Z,3.50
2018-12-05T01:33:22.505Z,3.20
2018-12-05T01:35:48.987Z,3.80
2018-12-05T01:38:15.479Z,3.80
2018-12-05T01:40:42.067Z,3.70
2018-12-05T01:43:08.530Z,3.50
2018-12-05T01:45:35.054Z,4.50
2018-12-05T01:48:01.877Z,4.17
2018-12-05T01:50:28.407Z,3.63
2018-12-05T01:52:54.900Z,3.20
2018-12-05T01:55:21.781Z,4.07
2018-12-05T01:57:48.255Z,3.50
2018-12-05T02:00:14.719Z,3.57
2018-12-05T02:02:41.435Z,3.77
2018-12-05T02:05:08.033Z,3.93
2018-12-05T02:07:34.521Z,3.50
2018-12-05T02:10:01.024Z,3.43
2018-12-05T02:12:27.511Z,3.80
2018-12-05T02:14:53.982Z,3.83
2018-12-05T02:17:20.470Z,3.17
2018-12-05T04:24:05.620Z,3.80
2018-12-05T04:26:32.240Z,3.70
2018-12-05T04:28:58.779Z,5.73
2018-12-05T04:31:25.546Z,3.07
2018-12-05T04:33:51.999Z,3.37
2018-12-05T04:36:18.589Z,3.30
2018-12-05T04:38:45.458Z,3.77
2018-12-05T04:41:11.968Z,3.20
2018-12-05T04:43:38.423Z,3.47
2018-12-05T04:46:04.851Z,3.40
2018-12-05T04:48:31.467Z,4.00
2018-12-05T04:50:57.974Z,4.03
2018-12-05T04:53:24.749Z,3.63
2018-12-05T04:55:51.204Z,3.47
2018-12-05T04:58:17.682Z,3.70
2018-12-05T05:00:44.179Z,4.83
2018-12-05T05:03:10.602Z,5.10
2018-12-05T05:05:37.021Z,4.53
2018-12-05T05:08:03.710Z,5.47
2018-12-05T05:10:30.154Z,4.50
2018-12-05T05:12:56.591Z,4.80
2018-12-05T05:15:23.142Z,4.30
2018-12-05T05:17:49.591Z,4.70
2018-12-05T05:20:16.007Z,4.53
2018-12-05T05:22:42.496Z,5.13
2018-12-05T05:25:08.970Z,4.50
2018-12-05T05:27:35.490Z,5.07
2018-12-05T05:30:02.294Z,5.00
2018-12-05T05:32:28.757Z,4.97
2018-12-05T05:34:55.211Z,5.40
2018-12-05T05:37:22.014Z,10.77
2018-12-05T05:39:48.434Z,6.20
2018-12-05T05:42:14.815Z,5.73
2018-12-05T05:44:41.287Z,9.67
2018-12-05T05:47:07.714Z,5.57
2018-12-05T05:49:34.191Z,7.43
2018-12-05T05:52:00.919Z,7.20
2018-12-05T05:54:27.373Z,7.13
2018-12-05T05:56:53.807Z,6.40
2018-12-05T05:59:20.295Z,6.93
2018-12-05T06:01:46.723Z,8.30
2018-12-05T06:04:13.149Z,7.33
2018-12-05T06:06:39.844Z,9.53
2018-12-05T06:09:06.276Z,8.27
2018-12-05T06:11:32.790Z,6.90
2018-12-05T06:13:59.339Z,6.83
2018-12-05T06:16:25.800Z,7.33
2018-12-05T06:18:52.238Z,8.03
2018-12-05T06:21:18.722Z,9.20
2018-12-05T06:23:45.162Z,9.10
2018-12-05T06:26:11.670Z,8.60
2018-12-05T06:28:38.050Z,8.90
2018-12-05T06:31:04.470Z,9.73
2018-12-05T06:33:30.982Z,9.60
2018-12-05T06:35:57.783Z,10.20
2018-12-05T06:38:24.232Z,9.37
2018-12-05T06:40:50.683Z,9.73
2018-12-05T06:43:17.462Z,10.40
2018-12-05T06:45:43.927Z,9.50
2018-12-05T06:48:10.388Z,10.53
2018-12-05T06:50:36.887Z,10.07
2018-12-05T06:53:03.310Z,10.93
2018-12-05T06:55:29.763Z,9.83
2018-12-05T06:57:56.231Z,10.70
2018-12-05T07:00:22.647Z,10.80
2018-12-05T07:02:49.174Z,9.67
2018-12-05T07:05:15.668Z,10.03
2018-12-05T07:07:42.194Z,10.30
2018-12-05T07:10:08.614Z,10.03
2018-12-05T07:12:35.082Z,11.40
2018-12-05T07:15:01.514Z,11.10
2018-12-05T07:17:27.990Z,9.73
2018-12-05T07:19:54.460Z,9.67
2018-12-05T07:22:20.890Z,9.83
2018-12-05T07:24:47.320Z,11.00
2018-12-05T07:27:14.198Z,10.17
2018-12-05T07:29:40.663Z,9.60
2018-12-05T07:32:14.286Z,10.17
2018-12-05T07:34:40.702Z,10.20
2018-12-05T07:37:07.151Z,11.13
2018-12-05T07:39:33.590Z,9.73
2018-12-05T07:42:00.002Z,10.47
2018-12-05T07:44:26.456Z,10.50
2018-12-05T07:46:53.202Z,9.07
2018-12-05T07:49:19.667Z,10.03
2018-12-05T07:51:46.119Z,9.33
2018-12-05T07:54:12.857Z,9.97
2018-12-05T07:56:39.317Z,10.97
2018-12-05T07:59:05.752Z,11.97
2018-12-05T08:01:32.594Z,10.87
2018-12-05T08:03:59.046Z,11.50
2018-12-05T08:06:25.472Z,11.60
2018-12-05T08:08:52.217Z,10.60
2018-12-05T08:11:18.663Z,12.27
2018-12-05T08:13:45.170Z,11.10
2018-12-05T08:16:11.613Z,11.87
2018-12-05T08:18:38.048Z,10.67
2018-12-05T08:21:04.501Z,13.00
2018-12-05T08:23:31.086Z,12.67
2018-12-05T08:25:57.547Z,12.53
2018-12-05T08:28:23.999Z,13.30
2018-12-05T08:30:50.536Z,13.13
2018-12-05T08:33:16.977Z,13.63
2018-12-05T08:35:43.429Z,12.00
2018-12-05T08:38:09.871Z,12.27
2018-12-05T08:40:36.287Z,12.27
2018-12-05T08:43:02.751Z,12.87
2018-12-05T08:45:29.244Z,12.37
2018-12-05T08:47:55.994Z,11.70
2018-12-05T08:50:22.519Z,11.77
2018-12-05T08:52:49.258Z,11.80
2018-12-05T08:55:15.775Z,12.53
2018-12-05T08:57:42.202Z,12.50
2018-12-05T09:00:08.739Z,14.20
2018-12-05T09:02:35.167Z,12.33
2018-12-05T09:05:01.642Z,10.57
2018-12-05T09:07:28.105Z,11.30
2018-12-05T09:09:54.562Z,10.53
2018-12-05T09:12:21.010Z,10.97
2018-12-05T09:14:47.862Z,8.30
2018-12-05T09:17:14.392Z,9.73
2018-12-05T09:19:40.846Z,8.63
2018-12-05T09:22:07.303Z,8.53
2018-12-05T09:24:33.734Z,8.70
2018-12-05T09:27:00.317Z,9.57
2018-12-05T09:29:27.035Z,9.10
2018-12-05T09:31:53.478Z,8.03
2018-12-05T09:34:19.959Z,7.90
2018-12-05T09:36:46.737Z,7.53
2018-12-05T09:39:13.179Z,7.50
2018-12-05T09:41:39.663Z,7.50
2018-12-05T09:44:06.199Z,7.30
2018-12-05T09:46:32.707Z,7.20
2018-12-05T09:48:59.197Z,8.13
2018-12-05T09:51:26.123Z,7.57
2018-12-05T09:53:52.665Z,7.07
2018-12-05T09:56:19.092Z,7.53
2018-12-05T09:58:45.542Z,7.63
2018-12-05T10:01:12.022Z,6.70
2018-12-05T10:03:38.442Z,7.77
2018-12-05T10:06:05.159Z,7.03
2018-12-05T10:08:31.667Z,7.50
2018-12-05T10:10:58.162Z,7.20
2018-12-05T10:13:24.624Z,6.90
2018-12-05T10:15:51.183Z,8.83
2018-12-05T10:18:17.609Z,7.10
2018-12-05T10:20:44.131Z,7.07
2018-12-05T10:23:10.576Z,7.03
2018-12-05T10:25:37.030Z,7.47
2018-12-05T10:28:03.722Z,7.47
2018-12-05T10:30:30.296Z,8.70
2018-12-05T10:32:56.763Z,8.67
2018-12-05T10:35:23.701Z,6.33
2018-12-05T10:37:50.159Z,8.90
2018-12-05T10:40:16.596Z,8.50
2018-12-05T10:42:43.310Z,7.83
2018-12-05T10:45:09.803Z,6.40
2018-12-05T10:47:36.453Z,6.83
2018-12-05T10:50:04.000Z,8.27
2018-12-05T10:52:30.470Z,7.17
2018-12-05T10:54:56.923Z,6.37
2018-12-05T10:57:23.625Z,9.10
2018-12-05T10:59:50.054Z,9.50
2018-12-05T11:02:22.663Z,6.33
2018-12-05T11:04:55.303Z,6.83
2018-12-05T11:07:27.954Z,8.90
2018-12-05T11:10:00.977Z,6.70
2018-12-05T11:12:33.566Z,6.03
2018-12-05T11:15:06.227Z,6.47
2018-12-05T11:17:38.798Z,7.20
2018-12-05T11:20:11.646Z,7.10
2018-12-05T11:22:44.254Z,5.90
2018-12-05T11:25:11.398Z,6.73
2018-12-05T11:27:37.966Z,6.03
2018-12-05T11:30:05.260Z,5.50
2018-12-05T11:32:31.755Z,5.60
2018-12-05T11:34:58.483Z,6.00
2018-12-05T11:37:24.915Z,5.47
2018-12-05T11:39:51.568Z,4.63
2018-12-05T11:42:18.319Z,4.60
2018-12-05T11:44:44.812Z,4.10
2018-12-05T11:47:11.277Z,4.43
2018-12-05T11:49:37.743Z,3.90
2018-12-05T11:52:04.211Z,5.37
2018-12-05T11:54:30.687Z,4.47
2018-12-05T11:56:57.491Z,4.83
2018-12-05T11:59:37.267Z,6.03
2018-12-05T12:02:04.024Z,5.73
2018-12-05T12:04:30.519Z,4.43
2018-12-05T12:06:56.959Z,4.07
2018-12-05T12:09:23.935Z,3.37
2018-12-05T12:11:50.510Z,3.37
2018-12-05T12:14:16.976Z,4.37
2018-12-05T12:16:43.783Z,3.77
2018-12-05T12:19:10.263Z,4.00
2018-12-05T12:21:36.768Z,4.40
2018-12-05T12:24:03.260Z,4.93
2018-12-05T12:26:33.121Z,3.30
2018-12-05T12:28:58.396Z,3.57
2018-12-05T12:31:25.249Z,2.83
2018-12-05T12:33:51.883Z,3.00
2018-12-05T12:36:18.410Z,3.83
2018-12-05T12:38:45.358Z,4.00
2018-12-05T12:41:11.834Z,5.30
2018-12-05T12:43:38.248Z,3.77
2018-12-05T12:46:04.888Z,2.80
2018-12-05T12:48:31.352Z,3.60
2018-12-05T12:50:57.875Z,2.63
2018-12-05T12:53:25.252Z,3.37
2018-12-05T12:55:51.765Z,3.30
2018-12-05T12:58:18.330Z,3.30
2018-12-05T13:00:45.932Z,2.80
2018-12-05T13:03:12.395Z,4.47
2018-12-05T13:05:38.838Z,4.10
2018-12-05T13:08:05.410Z,3.40
2018-12-05T13:10:31.850Z,5.13
2018-12-05T13:12:58.382Z,4.33
2018-12-05T13:15:25.336Z,3.63
2018-12-05T13:17:51.851Z,4.43
2018-12-05T13:20:18.342Z,3.50
2018-12-05T13:22:44.828Z,4.40
2018-12-05T13:25:11.390Z,4.83
2018-12-05T13:27:37.880Z,5.80
2018-12-05T13:30:04.750Z,21.17
2018-12-05T13:32:31.271Z,4.30
2018-12-05T13:34:57.866Z,8.57
2018-12-05T13:37:25.336Z,4.20
2018-12-05T13:39:51.975Z,8.90
2018-12-05T13:42:18.631Z,4.70
2018-12-05T13:44:45.227Z,4.93
2018-12-05T13:47:11.835Z,4.90
2018-12-05T13:49:38.302Z,3.50
2018-12-05T13:52:04.755Z,4.73
2018-12-05T13:54:31.272Z,4.73
2018-12-05T13:56:57.839Z,5.77
2018-12-05T13:59:24.606Z,3.50
2018-12-05T14:01:51.142Z,5.60
2018-12-05T14:04:17.647Z,5.80
2018-12-05T14:06:44.427Z,4.50
2018-12-05T14:09:10.976Z,3.50
2018-12-05T14:11:37.565Z,6.40
2018-12-05T14:14:04.175Z,4.60
2018-12-05T14:16:30.739Z,5.37
2018-12-05T14:18:57.330Z,5.20
2018-12-05T14:21:23.858Z,5.90
2018-12-05T14:23:50.339Z,5.43
2018-12-05T14:26:16.678Z,5.30
2018-12-05T14:28:43.211Z,5.93
2018-12-05T14:31:09.756Z,4.83
2018-12-05T14:33:36.216Z,3.40
2018-12-05T14:36:02.740Z,5.00
2018-12-05T14:38:29.279Z,4.13
2018-12-05T14:40:55.936Z,6.80
2018-12-05T14:43:22.692Z,4.77
2018-12-05T14:45:49.155Z,4.50
2018-12-05T14:48:15.594Z,4.87
2018-12-05T14:50:42.213Z,6.10
2018-12-05T14:53:08.703Z,5.90
2018-12-05T14:55:35.176Z,4.77
2018-12-05T14:58:02.007Z,4.10
2018-12-05T15:00:28.504Z,5.57
2018-12-05T15:02:54.977Z,5.60
2018-12-05T15:05:21.727Z,4.60
2018-12-05T15:07:48.160Z,5.73
2018-12-05T15:10:14.641Z,4.97
2018-12-05T15:12:43.104Z,5.00
2018-12-05T15:15:09.663Z,5.90
2018-12-05T15:17:36.136Z,6.30
2018-12-05T15:20:03.178Z,7.23
2018-12-05T15:22:29.662Z,5.93
2018-12-05T15:24:56.224Z,7.90
2018-12-05T15:27:22.837Z,10.00
2018-12-05T15:29:49.334Z,7.10
2018-12-05T15:32:15.844Z,7.83
2018-12-05T15:34:42.440Z,8.27
2018-12-05T15:37:08.971Z,7.47
2018-12-05T15:39:35.442Z,8.90
2018-12-05T15:42:02.174Z,7.30
2018-12-05T15:44:28.610Z,7.87
2018-12-05T15:46:55.063Z,6.30
2018-12-05T15:49:21.551Z,8.40
2018-12-05T15:51:48.093Z,6.70
2018-12-05T15:54:14.655Z,9.80
2018-12-05T15:56:41.491Z,9.07
2018-12-05T15:59:07.986Z,6.10
2018-12-05T16:01:34.577Z,7.17
2018-12-05T16:04:01.440Z,8.57
2018-12-05T16:06:28.463Z,7.70
2018-12-05T16:08:54.919Z,6.43
2018-12-05T16:11:21.412Z,7.80
2018-12-05T16:13:47.976Z,9.00
2018-12-05T16:16:14.418Z,8.30
2018-12-05T16:18:41.128Z,7.30
2018-12-05T16:21:07.620Z,7.70
2018-12-05T16:23:34.161Z,7.90
2018-12-05T16:26:00.870Z,6.73
2018-12-05T16:28:27.448Z,6.63
2018-12-05T16:30:54.027Z,7.77
2018-12-05T16:33:20.556Z,9.10
2018-12-05T16:35:47.111Z,7.73
2018-12-05T16:38:13.562Z,6.90
2018-12-05T16:40:40.075Z,9.90
2018-12-05T16:43:06.550Z,7.83
2018-12-05T16:45:33.152Z,11.40
2018-12-05T16:47:59.983Z,8.27
2018-12-05T16:50:26.461Z,8.87
2018-12-05T16:52:53.127Z,8.90
2018-12-05T16:55:19.604Z,8.83
2018-12-05T16:57:46.092Z,8.00
2018-12-05T17:00:12.521Z,9.97
2018-12-05T17:02:39.282Z,9.33
2018-12-05T17:05:05.814Z,9.47
2018-12-05T17:07:32.272Z,9.30
2018-12-05T17:09:59.031Z,10.20
2018-12-05T17:12:25.502Z,8.77
2018-12-05T17:14:51.996Z,8.90
2018-12-05T17:17:18.499Z,9.90
2018-12-05T17:19:46.294Z,9.90
2018-12-05T17:22:12.987Z,9.00
2018-12-05T17:24:40.790Z,10.47
2018-12-05T17:27:07.255Z,8.50
2018-12-05T17:29:33.718Z,10.30
2018-12-05T17:32:01.038Z,12.57
2018-12-05T17:34:27.522Z,8.43
2018-12-05T17:36:54.099Z,7.93
2018-12-05T17:39:20.907Z,9.13
2018-12-05T17:41:47.424Z,10.70
2018-12-05T17:44:14.002Z,9.57
2018-12-05T17:46:40.625Z,10.23
2018-12-05T17:49:07.254Z,8.63
2018-12-05T17:51:33.707Z,12.10
2018-12-05T17:54:00.539Z,8.23
2018-12-05T17:56:26.957Z,7.40
2018-12-05T17:58:53.520Z,7.60
2018-12-05T18:01:20.386Z,10.07
2018-12-05T18:03:46.880Z,8.70
2018-12-05T18:06:13.336Z,8.60
2018-12-05T18:08:39.845Z,9.00
2018-12-05T18:11:06.274Z,10.37
2018-12-05T18:13:32.777Z,9.43
2018-12-05T18:15:59.390Z,9.27
2018-12-05T18:18:25.923Z,9.90
2018-12-05T18:20:52.371Z,9.23
2018-12-05T18:23:19.189Z,8.60
2018-12-05T18:25:45.726Z,8.60
2018-12-05T18:28:12.327Z,9.27
2018-12-05T18:30:39.161Z,9.60
2018-12-05T18:33:05.788Z,9.47
2018-12-05T18:35:32.411Z,10.57
2018-12-05T18:37:58.935Z,9.27
2018-12-05T18:40:25.367Z,9.87
2018-12-05T18:42:52.148Z,10.33
2018-12-05T18:45:18.894Z,9.97
2018-12-05T18:47:45.365Z,8.83
2018-12-05T18:50:11.944Z,10.43
2018-12-05T18:52:39.472Z,9.63
2018-12-05T18:55:05.960Z,10.03
2018-12-05T18:57:32.486Z,9.20
2018-12-05T19:00:01.455Z,9.60
2018-12-05T19:02:27.622Z,9.40
2018-12-05T19:04:54.150Z,10.13
2018-12-05T19:07:27.443Z,9.00
2018-12-05T19:09:53.996Z,9.33
2018-12-05T19:12:20.471Z,8.97
2018-12-05T19:14:46.975Z,8.83
2018-12-05T19:17:13.430Z,9.37
2018-12-05T19:19:39.905Z,8.03
2018-12-05T19:22:06.753Z,8.50
2018-12-05T19:24:33.282Z,8.63
2018-12-05T19:26:59.703Z,9.80
2018-12-05T19:29:26.484Z,9.10
2018-12-05T19:31:52.936Z,10.80
2018-12-05T19:34:19.342Z,11.23
2018-12-05T19:36:46.087Z,10.13
2018-12-05T19:39:12.502Z,8.80
2018-12-05T19:41:38.832Z,9.70
2018-12-05T19:44:05.458Z,9.17
2018-12-05T19:46:31.906Z,9.93
2018-12-05T19:48:58.454Z,9.50
2018-12-05T19:51:24.995Z,7.90
2018-12-05T19:53:51.466Z,7.20
2018-12-05T19:56:17.894Z,8.87
2018-12-05T19:58:44.830Z,8.40
2018-12-05T20:01:12.291Z,8.20
2018-12-05T20:03:38.939Z,7.77
2018-12-05T20:06:06.513Z,8.10
2018-12-05T20:08:32.974Z,7.80
2018-12-05T20:10:59.540Z,8.03
2018-12-05T20:13:26.828Z,7.90
2018-12-05T20:15:53.906Z,7.63
2018-12-05T20:18:20.554Z,7.13
2018-12-05T20:20:48.087Z,6.83
2018-12-05T20:23:14.555Z,6.93
2018-12-05T20:25:41.201Z,7.17
2018-12-05T20:28:07.783Z,7.20
2018-12-05T20:30:34.275Z,6.20
2018-12-05T20:33:00.721Z,6.20
2018-12-05T20:35:27.585Z,6.17
2018-12-05T20:37:54.306Z,5.33
2018-12-05T20:40:20.800Z,5.63
2018-12-05T20:42:47.818Z,5.70
2018-12-05T20:45:14.282Z,7.20
2018-12-05T20:47:41.480Z,6.47
2018-12-05T20:50:08.260Z,6.00
2018-12-05T20:52:34.823Z,5.77
2018-12-05T20:55:01.484Z,6.30
2018-12-05T20:57:28.379Z,6.70
2018-12-05T20:59:54.855Z,6.93
2018-12-05T21:02:21.374Z,7.07
2018-12-05T21:04:48.256Z,6.87
2018-12-05T21:07:14.739Z,6.33
2018-12-05T21:09:41.269Z,6.90
2018-12-05T21:12:07.709Z,7.20
2018-12-05T21:14:34.194Z,6.67
2018-12-05T21:17:00.698Z,6.87
2018-12-05T21:19:27.199Z,5.87
2018-12-05T21:21:53.753Z,6.10
2018-12-05T21:24:20.172Z,5.73
2018-12-05T21:26:47.230Z,6.60
2018-12-05T21:29:13.836Z,4.90
2018-12-05T21:31:40.312Z,6.40
2018-12-05T21:34:07.231Z,6.33
2018-12-05T21:36:33.720Z,6.17
2018-12-05T21:39:00.158Z,5.37
2018-12-05T21:41:26.762Z,6.33
2018-12-05T21:43:53.355Z,5.63
2018-12-05T21:46:19.835Z,6.00
2018-12-05T21:48:46.311Z,6.63
2018-12-05T21:51:12.742Z,5.50
2018-12-05T21:53:40.381Z,6.10
2018-12-05T21:56:09.977Z,5.93
2018-12-05T21:58:38.184Z,6.40
2018-12-05T22:01:04.662Z,6.10
2018-12-05T22:03:31.240Z,5.03
2018-12-05T22:06:04.963Z,5.57
2018-12-05T22:08:31.463Z,6.00
2018-12-05T22:10:57.907Z,6.20
2018-12-05T22:13:24.362Z,6.10
2018-12-05T22:15:51.075Z,5.20
2018-12-05T22:18:17.623Z,5.87
2018-12-05T22:20:44.079Z,4.60
2018-12-05T22:23:10.814Z,5.13
2018-12-05T22:25:37.271Z,6.43
2018-12-05T22:28:03.760Z,5.03
2018-12-05T22:30:30.186Z,5.97
2018-12-05T22:32:56.651Z,4.90
2018-12-05T22:35:23.079Z,5.97
2018-12-05T22:37:49.724Z,5.60
2018-12-05T22:40:16.377Z,5.43
2018-12-05T22:42:42.884Z,5.10
2018-12-05T22:45:09.581Z,5.30
2018-12-05T22:47:36.048Z,5.83
2018-12-05T22:50:02.467Z,5.60
2018-12-05T22:52:29.285Z,4.70
2018-12-05T22:54:55.748Z,5.57
2018-12-05T22:57:22.405Z,5.50
2018-12-05T22:59:48.920Z,5.97
2018-12-05T23:02:15.496Z,5.60
2018-12-05T23:04:42.023Z,5.53
2018-12-05T23:07:08.757Z,6.00
2018-12-05T23:09:35.212Z,5.20
2018-12-05T23:12:02.017Z,6.10
2018-12-05T23:14:28.508Z,5.80
2018-12-05T23:16:54.979Z,5.23
2018-12-05T23:19:21.554Z,5.60
2018-12-05T23:21:48.038Z,5.57
2018-12-05T23:24:14.498Z,4.60
2018-12-05T23:26:40.974Z,5.73
2018-12-05T23:29:07.726Z,6.17
2018-12-05T23:31:34.195Z,5.20
2018-12-05T23:34:00.871Z,5.90
2018-12-05T23:36:27.344Z,6.03
2018-12-05T23:38:53.810Z,5.10
2018-12-05T23:41:20.356Z,5.23
2018-12-05T23:43:47.136Z,4.93
2018-12-05T23:46:13.561Z,5.73
2018-12-05T23:48:40.038Z,5.00
2018-12-05T23:51:06.812Z,4.93
2018-12-05T23:53:33.279Z,5.63
2018-12-05T23:55:59.775Z,4.90
2018-12-05T23:58:26.256Z,5.00
